Time;durP1;ratioP1;P1;durP2;ratioP2;P2;SDS_P1;SDS_P2;PMS_P1;PMS_P2;Temp;Humidity;BMP_temperature;BMP_pressure;BME280_temperature;BME280_humidity;BME280_pressure;Samples;Min_cycle;Max_cycle;Signal;HPM_P1;HPM_P2
2023/07/02 00:01:38;;;;;;;31.10;22.20;;;;;;;16.48;77.14;97541.17;435508;1263;99314;-43
2023/07/02 00:11:45;;;;;;;35.00;24.10;;;;;;;16.67;77.32;97543.64;435344;1253;112363;-41
2023/07/02 00:31:59;;;;;;;33.40;24.70;;;;;;;16.52;77.50;97543.73;435185;1254;99228;-43
2023/07/02 00:42:08;;;;;;;31.90;22.80;;;;;;;16.35;77.95;97537.94;435466;1253;107321;-41
2023/07/02 00:52:16;;;;;;;27.90;21.20;;;;;;;16.17;78.07;97532.27;435334;1253;99215;-42
2023/07/02 01:12:29;;;;;;;28.10;20.30;;;;;;;16.01;78.90;97528.16;435217;1253;110514;-42
2023/07/02 01:22:35;;;;;;;;;;;;;;;15.97;79.18;97524.97;436068;1253;99234;-44
2023/07/02 01:32:42;;;;;;;31.90;19.70;;;;;;;15.91;79.34;97517.51;435261;1255;107452;-41
2023/07/02 01:42:50;;;;;;;28.10;19.40;;;;;;;15.82;79.71;97511.48;435203;1250;99228;-42
2023/07/02 01:52:57;;;;;;;29.10;19.60;;;;;;;15.78;80.07;97504.48;435482;1266;111807;-42
2023/07/02 02:03:05;;;;;;;22.20;17.20;;;;;;;15.75;80.20;97494.27;435302;1254;109683;-43
2023/07/02 02:13:12;;;;;;;21.90;17.30;;;;;;;15.72;80.16;97490.50;435310;1250;99256;-41
2023/07/02 02:23:19;;;;;;;19.50;14.40;;;;;;;15.68;80.14;97491.86;435121;1250;108548;-41
2023/07/02 02:33:27;;;;;;;17.60;14.30;;;;;;;15.66;80.03;97488.95;435271;1263;99221;-42
2023/07/02 02:43:34;;;;;;;20.80;14.40;;;;;;;15.71;80.10;97495.32;435437;1251;111641;-44
2023/07/02 02:53:41;;;;;;;19.30;12.90;;;;;;;15.79;79.83;97498.02;435241;1253;108419;-44
2023/07/02 03:03:48;;;;;;;20.80;13.10;;;;;;;16.03;79.42;97501.36;435379;1253;99311;-42
2023/07/02 03:13:55;;;;;;;18.80;13.60;;;;;;;16.20;79.26;97504.91;435458;1253;108051;-42
2023/07/02 03:24:03;;;;;;;17.10;13.40;;;;;;;16.46;79.16;97509.21;435119;1250;421714;-41
2023/07/02 03:34:10;;;;;;;21.40;12.30;;;;;;;16.89;78.45;97508.47;435449;1253;112165;-43
2023/07/02 03:44:19;;;;;;;19.80;13.50;;;;;;;17.07;78.08;97512.49;435435;1253;107682;-43
2023/07/02 03:54:26;;;;;;;19.40;12.80;;;;;;;17.21;77.79;97516.67;435301;1253;99318;-44
2023/07/02 04:04:33;;;;;;;16.50;12.30;;;;;;;17.31;77.61;97516.98;435227;1253;107870;-42
2023/07/02 04:14:40;;;;;;;11.90;9.10;;;;;;;17.42;77.00;97525.21;435382;1253;99394;-41
2023/07/02 04:34:56;;;;;;;11.30;8.00;;;;;;;17.82;76.57;97541.66;435382;1253;106594;-42
2023/07/02 04:45:03;;;;;;;17.70;9.70;;;;;;;17.95;76.16;97546.43;435308;1251;98337;-40
2023/07/02 04:55:10;;;;;;;12.80;8.10;;;;;;;18.06;75.71;97551.11;435347;1253;107887;-42
2023/07/02 05:05:17;;;;;;;11.00;7.50;;;;;;;18.24;75.44;97552.49;435181;1253;99313;-42
2023/07/02 05:15:24;;;;;;;10.10;7.20;;;;;;;18.29;75.31;97560.78;435397;1253;111300;-42
2023/07/02 05:25:32;;;;;;;10.60;6.90;;;;;;;18.31;75.20;97573.07;435261;1253;108557;-41
2023/07/02 05:35:38;;;;;;;;;;;;;;;18.39;75.05;97586.11;435254;1263;98030;-41
2023/07/02 05:55:51;;;;;;;6.70;5.50;;;;;;;18.24;75.12;97607.71;435517;1257;99215;-42
2023/07/02 06:05:57;;;;;;;6.40;5.00;;;;;;;18.22;75.09;97607.70;435486;1263;111798;-43
2023/07/02 06:16:04;;;;;;;4.20;3.70;;;;;;;18.34;75.22;97604.86;435323;1253;109267;-42
2023/07/02 06:26:12;;;;;;;7.10;3.10;;;;;;;18.50;75.37;97608.20;435199;1265;99237;-41
2023/07/02 06:36:20;;;;;;;5.90;3.50;;;;;;;18.69;75.66;97615.30;435435;1255;107145;-42
2023/07/02 06:46:27;;;;;;;3.70;3.20;;;;;;;18.94;75.73;97620.50;435500;1253;97975;-44
2023/07/02 06:56:36;;;;;;;2.80;2.30;;;;;;;19.22;75.64;97628.85;435854;1257;110108;-42
2023/07/02 07:06:44;;;;;;;3.50;2.10;;;;;;;19.30;75.42;97631.52;435382;1253;108527;-42
2023/07/02 07:16:51;;;;;;;2.40;1.80;;;;;;;19.29;75.50;97638.42;436216;1254;99097;-42
2023/07/02 07:26:58;;;;;;;2.40;1.70;;;;;;;19.36;75.57;97650.98;435338;1253;108259;-43
2023/07/02 07:37:06;;;;;;;1.80;1.70;;;;;;;19.40;75.27;97658.98;435282;1253;98849;-42
2023/07/02 07:47:17;;;;;;;5.10;1.50;;;;;;;19.45;75.41;97674.98;435330;1263;111197;-43
2023/07/02 07:57:25;;;;;;;1.70;1.60;;;;;;;19.52;75.67;97682.73;435238;1263;107355;-42
2023/07/02 08:07:33;;;;;;;2.00;1.70;;;;;;;19.80;76.09;97687.44;435455;1251;99304;-42
2023/07/02 08:17:39;;;;;;;2.40;1.50;;;;;;;19.85;76.17;97698.27;435317;1251;107642;-45
2023/07/02 08:27:45;;;;;;;2.40;2.20;;;;;;;19.84;76.16;97706.64;435318;1254;99214;-43
2023/07/02 08:37:52;;;;;;;1.90;1.70;;;;;;;19.98;76.10;97721.73;435246;1263;111657;-42
2023/07/02 08:58:06;;;;;;;2.10;1.80;;;;;;;20.80;75.89;97718.60;435382;1252;98280;-43
2023/07/02 09:08:12;;;;;;;1.70;1.60;;;;;;;20.84;75.64;97720.02;435624;1251;108187;-42
2023/07/02 09:18:18;;;;;;;3.70;2.00;;;;;;;21.12;75.30;97722.84;435879;1249;99097;-41
2023/07/02 09:28:25;;;;;;;2.80;2.30;;;;;;;21.63;75.42;97722.53;435449;1251;110968;-42
2023/07/02 09:38:31;;;;;;;2.80;2.60;;;;;;;22.12;74.25;97721.99;435338;1263;108349;-41
2023/07/02 09:48:39;;;;;;;3.90;2.60;;;;;;;22.34;73.61;97726.30;435254;1249;99830;-42
2023/07/02 09:58:45;;;;;;;4.00;3.20;;;;;;;22.39;72.53;97720.77;435365;1251;108918;-41
2023/07/02 10:08:59;;;;;;;3.10;2.40;;;;;;;22.13;72.14;97719.59;436035;1254;99205;-42
2023/07/02 10:19:14;;;;;;;4.50;3.30;;;;;;;21.58;72.01;97723.57;435724;1250;110971;-42
2023/07/02 10:29:19;;;;;;;2.60;2.40;;;;;;;21.37;72.54;97717.94;435269;1266;108337;-41
2023/07/02 10:49:36;;;;;;;11.10;4.70;;;;;;;22.97;73.16;97704.70;435458;1254;107735;-40
2023/07/02 10:59:43;;;;;;;4.90;2.90;;;;;;;23.41;72.01;97697.49;435289;1251;97940;-43
2023/07/02 11:09:52;;;;;;;2.40;1.80;;;;;;;23.76;71.14;97684.21;435353;1249;112265;-41
2023/07/02 11:20:00;;;;;;;2.20;1.70;;;;;;;23.98;69.57;97674.57;435400;1251;107923;-41
2023/07/02 11:30:09;;;;;;;1.90;1.40;;;;;;;23.82;68.71;97677.70;435352;1254;98055;-42
2023/07/02 11:40:18;;;;;;;1.40;1.30;;;;;;;23.24;68.14;97679.59;435403;1250;108121;-40
2023/07/02 11:50:25;;;;;;;3.00;1.80;;;;;;;22.44;68.10;97686.64;436128;1253;99528;-41
2023/07/02 12:00:34;;;;;;;4.80;1.70;;;;;;;21.85;68.59;97719.61;435963;1253;112256;-43
2023/07/02 12:10:41;;;;;;;3.00;1.40;;;;;;;20.79;69.90;97732.58;435143;1251;109296;-44
2023/07/02 12:20:48;;;;;;;2.90;1.20;;;;;;;20.46;71.47;97727.96;435443;1251;98824;-42
2023/07/02 12:30:54;;;;;;;5.40;1.00;;;;;;;20.88;72.50;97729.46;435564;1250;109419;-44
2023/07/02 12:41:02;;;;;;;1.10;1.10;;;;;;;21.15;72.66;97723.70;435431;1250;99027;-42
2023/07/02 12:51:09;;;;;;;2.20;2.10;;;;;;;21.72;72.88;97737.59;435403;1253;111430;-43
2023/07/02 13:01:16;;;;;;;1.70;1.60;;;;;;;21.92;72.43;97750.23;436038;1250;107886;-43
2023/07/02 13:11:25;;;;;;;5.00;1.20;;;;;;;22.10;71.75;97736.69;436016;1254;99218;-42
2023/07/02 13:21:33;;;;;;;4.10;1.90;;;;;;;22.34;71.60;97723.01;437171;1250;108620;-42
2023/07/02 13:31:40;;;;;;;2.30;2.10;;;;;;;22.47;71.20;97736.88;436887;1251;99230;-42
2023/07/02 13:51:54;;;;;;;3.70;1.90;;;;;;;22.63;69.90;97753.46;436852;1250;107525;-41
2023/07/02 14:02:01;;;;;;;2.10;1.70;;;;;;;22.65;68.82;97757.38;435347;1250;99249;-43
2023/07/02 14:12:08;;;;;;;4.50;1.80;;;;;;;22.91;67.81;97757.34;435412;1253;108531;-42
2023/07/02 14:22:16;;;;;;;2.90;1.50;;;;;;;22.59;66.37;97754.70;435419;1250;99266;-43
2023/07/02 14:42:29;;;;;;;4.00;1.90;;;;;;;23.19;65.75;97751.96;435388;1251;109323;-42
2023/07/02 14:52:35;;;;;;;;;;;;;;;23.04;64.26;97749.80;435312;1253;98055;-42
2023/07/02 15:02:42;;;;;;;4.60;2.10;;;;;;;22.65;63.74;97754.08;435486;1251;109534;-42
2023/07/02 15:12:49;;;;;;;1.60;1.50;;;;;;;22.68;63.32;97760.26;435430;1250;97993;-42
2023/07/02 15:22:57;;;;;;;4.50;1.80;;;;;;;22.80;61.60;97765.87;435396;1253;112310;-43
2023/07/02 15:33:04;;;;;;;3.70;2.10;;;;;;;22.62;60.91;97764.06;434961;1250;430809;-42
2023/07/02 15:43:10;;;;;;;;;;;;;;;22.69;60.55;97765.98;435458;1253;99231;-43
2023/07/02 15:53:20;;;;;;;2.00;1.80;;;;;;;22.62;59.61;97784.75;435245;1250;108284;-45
2023/07/02 16:03:31;;;;;;;2.30;1.80;;;;;;;22.50;59.42;97789.94;435339;1250;99215;-42
2023/07/02 16:13:40;;;;;;;4.40;2.20;;;;;;;22.12;59.85;97794.77;435358;1253;111025;-42
2023/07/02 16:23:47;;;;;;;2.50;2.10;;;;;;;22.08;60.31;97794.41;435391;1250;107667;-42
2023/07/02 16:33:54;;;;;;;2.40;2.20;;;;;;;22.25;60.13;97797.61;435347;1251;99142;-42
2023/07/02 16:44:02;;;;;;;3.80;2.00;;;;;;;22.02;59.87;97803.52;435500;1250;108644;-42
2023/07/02 17:04:14;;;;;;;5.00;2.70;;;;;;;22.12;60.34;97818.25;435440;1253;110109;-41
2023/07/02 17:24:29;;;;;;;2.90;1.90;;;;;;;21.77;60.40;97836.27;435324;1253;99276;-42
2023/07/02 17:34:38;;;;;;;2.50;2.00;;;;;;;21.56;60.52;97833.47;435318;1254;108273;-43
2023/07/02 17:44:47;;;;;;;2.50;2.20;;;;;;;21.38;60.68;97838.63;435360;1250;97933;-41
2023/07/02 17:54:54;;;;;;;4.00;2.50;;;;;;;21.22;60.76;97853.42;435294;1254;111782;-42
2023/07/02 18:05:02;;;;;;;2.90;2.50;;;;;;;21.06;61.10;97863.08;435334;1254;109269;-41
2023/07/02 18:15:11;;;;;;;4.80;3.30;;;;;;;20.82;61.21;97871.50;435310;1251;99215;-42
2023/07/02 18:25:16;;;;;;;;;;;;;;;20.60;61.73;97885.84;435253;1255;107708;-41
2023/07/02 18:35:25;;;;;;;3.10;2.70;;;;;;;20.42;62.00;97902.02;435426;1251;99884;-42
2023/07/02 18:45:32;;;;;;;6.80;3.40;;;;;;;20.13;62.09;97915.05;435544;1251;112937;-41
2023/07/02 18:55:40;;;;;;;3.00;2.60;;;;;;;19.71;61.83;97926.98;435367;1251;107797;-43
2023/07/02 19:05:48;;;;;;;5.70;3.20;;;;;;;19.36;61.80;97943.44;435514;1250;98674;-42
2023/07/02 19:15:56;;;;;;;6.80;3.10;;;;;;;19.02;62.36;97949.35;435416;1251;108304;-42
2023/07/02 19:26:03;;;;;;;3.60;2.90;;;;;;;18.70;62.89;97955.36;435403;1250;98031;-43
2023/07/02 19:36:07;;;;;;;6.50;3.20;;;;;;;18.32;63.24;97970.15;435312;1253;111419;-42
2023/07/02 19:46:15;;;;;;;4.30;3.10;;;;;;;17.98;63.69;97982.89;435283;1253;107817;-42
2023/07/02 20:06:27;;;;;;;4.00;3.60;;;;;;;17.29;64.64;97998.98;435467;1253;109591;-42
2023/07/02 20:16:35;;;;;;;10.10;5.30;;;;;;;16.90;64.93;98007.45;435487;1253;99149;-43
2023/07/02 20:26:41;;;;;;;12.70;5.40;;;;;;;16.67;65.84;98018.98;435412;1253;113028;-43
2023/07/02 20:46:58;;;;;;;6.40;5.30;;;;;;;16.60;66.99;98029.98;436092;1251;97942;-43
2023/07/02 20:57:03;;;;;;;7.70;5.40;;;;;;;16.63;67.62;98036.73;435528;1253;108930;-42
2023/07/02 21:07:11;;;;;;;11.30;5.40;;;;;;;16.61;68.09;98045.92;435281;1251;99247;-41
2023/07/02 21:17:18;;;;;;;5.20;4.20;;;;;;;16.58;68.24;98051.73;435417;1253;112075;-41
2023/07/02 21:27:26;;;;;;;6.30;4.40;;;;;;;16.47;68.58;98059.98;435217;1253;108785;-42
2023/07/02 21:37:34;;;;;;;9.90;5.20;;;;;;;16.29;68.90;98072.31;435396;1250;98050;-42
2023/07/02 21:47:41;;;;;;;6.80;5.10;;;;;;;16.02;69.29;98080.90;435434;1253;107847;-44
2023/07/02 21:57:47;;;;;;;9.20;6.00;;;;;;;15.84;69.54;98091.38;435332;1263;99234;-42
2023/07/02 22:07:54;;;;;;;7.70;4.30;;;;;;;15.69;69.79;98099.73;435294;1253;110928;-43
2023/07/02 22:28:09;;;;;;;7.20;5.10;;;;;;;15.69;70.73;98113.59;435456;1253;99263;-41
2023/07/02 22:38:16;;;;;;;7.70;5.40;;;;;;;15.76;71.17;98122.52;435337;1253;107805;-41
2023/07/02 22:48:24;;;;;;;10.70;4.90;;;;;;;15.79;71.41;98118.80;435439;1254;97976;-41
2023/07/02 22:58:31;;;;;;;6.30;4.30;;;;;;;15.80;71.28;98117.79;435271;1253;111424;-41
2023/07/02 23:08:38;;;;;;;7.10;5.60;;;;;;;15.73;71.42;98117.13;435412;1253;108610;-42
2023/07/02 23:18:45;;;;;;;6.60;5.50;;;;;;;15.55;71.68;98112.68;435475;1250;98819;-41
2023/07/02 23:39:00;;;;;;;10.90;4.30;;;;;;;15.04;71.75;98108.45;435259;1253;99225;-42
2023/07/02 23:49:07;;;;;;;6.30;4.30;;;;;;;14.84;72.10;98107.22;435268;1253;110834;-41
2023/07/02 23:59:14;;;;;;;8.50;5.80;;;;;;;14.62;72.30;98111.78;435281;1253;108236;-43
